sensor_id;sensor_type;location;lat;lon;timestamp;pressure;altitude;pressure_sealevel;temperature;humidity
84147;BME280;74267;50.434;7.398;2024-01-06T00:00:19;99562.59;;;6.94;78.02
84147;BME280;74267;50.434;7.398;2024-01-06T00:02:48;99565.81;;;6.96;78.25
84147;BME280;74267;50.434;7.398;2024-01-06T00:05:13;99569.03;;;6.98;77.57
84147;BME280;74267;50.434;7.398;2024-01-06T00:07:38;99566.66;;;6.90;78.19
84147;BME280;74267;50.434;7.398;2024-01-06T00:10:04;99565.41;;;6.93;77.87
84147;BME280;74267;50.434;7.398;2024-01-06T00:12:30;99566.84;;;6.89;78.79
84147;BME280;74267;50.434;7.398;2024-01-06T00:14:55;99563.81;;;6.85;78.17
84147;BME280;74267;50.434;7.398;2024-01-06T00:17:20;99562.22;;;6.84;78.44
84147;BME280;74267;50.434;7.398;2024-01-06T00:19:46;99567.88;;;6.81;78.44
84147;BME280;74267;50.434;7.398;2024-01-06T00:22:15;99576.34;;;6.83;78.03
84147;BME280;74267;50.434;7.398;2024-01-06T00:24:41;99570.69;;;6.86;78.90
84147;BME280;74267;50.434;7.398;2024-01-06T00:27:06;99568.66;;;6.88;78.66
84147;BME280;74267;50.434;7.398;2024-01-06T00:29:32;99569.06;;;6.85;78.13
84147;BME280;74267;50.434;7.398;2024-01-06T00:31:57;99574.28;;;6.85;78.33
84147;BME280;74267;50.434;7.398;2024-01-06T00:34:22;99571.06;;;6.90;79.01
84147;BME280;74267;50.434;7.398;2024-01-06T00:36:47;99573.06;;;6.94;79.13
84147;BME280;74267;50.434;7.398;2024-01-06T00:39:13;99579.06;;;7.01;78.70
84147;BME280;74267;50.434;7.398;2024-01-06T00:41:38;99580.25;;;7.05;78.57
84147;BME280;74267;50.434;7.398;2024-01-06T00:44:04;99572.25;;;7.00;78.37
84147;BME280;74267;50.434;7.398;2024-01-06T00:46:29;99560.59;;;6.96;78.65
84147;BME280;74267;50.434;7.398;2024-01-06T00:48:54;99576.06;;;6.98;78.65
84147;BME280;74267;50.434;7.398;2024-01-06T00:51:19;99570.63;;;6.99;78.07
84147;BME280;74267;50.434;7.398;2024-01-06T00:53:45;99576.06;;;6.98;77.88
84147;BME280;74267;50.434;7.398;2024-01-06T00:56:10;99574.25;;;6.98;77.81
84147;BME280;74267;50.434;7.398;2024-01-06T00:58:35;99579.69;;;7.03;78.84
84147;BME280;74267;50.434;7.398;2024-01-06T01:01:01;99581.53;;;6.90;78.69
84147;BME280;74267;50.434;7.398;2024-01-06T01:03:26;99568.66;;;6.88;79.11
84147;BME280;74267;50.434;7.398;2024-01-06T01:05:51;99574.88;;;6.94;79.34
84147;BME280;74267;50.434;7.398;2024-01-06T01:08:16;99577.28;;;6.95;78.46
84147;BME280;74267;50.434;7.398;2024-01-06T01:10:42;99569.84;;;6.92;79.06
84147;BME280;74267;50.434;7.398;2024-01-06T01:13:07;99574.50;;;6.90;78.86
84147;BME280;74267;50.434;7.398;2024-01-06T01:15:32;99580.91;;;6.94;78.67
84147;BME280;74267;50.434;7.398;2024-01-06T01:17:58;99587.16;;;6.93;78.61
84147;BME280;74267;50.434;7.398;2024-01-06T01:20:23;99583.31;;;6.96;79.06
84147;BME280;74267;50.434;7.398;2024-01-06T01:22:48;99588.34;;;6.97;78.52
84147;BME280;74267;50.434;7.398;2024-01-06T01:25:14;99596.84;;;6.86;78.94
84147;BME280;74267;50.434;7.398;2024-01-06T01:27:39;99596.63;;;6.94;78.61
84147;BME280;74267;50.434;7.398;2024-01-06T01:30:05;99594.38;;;6.98;78.83
84147;BME280;74267;50.434;7.398;2024-01-06T01:32:30;99588.34;;;6.97;79.03
84147;BME280;74267;50.434;7.398;2024-01-06T01:34:56;99591.53;;;7.06;79.42
84147;BME280;74267;50.434;7.398;2024-01-06T01:37:21;99601.19;;;7.05;79.18
84147;BME280;74267;50.434;7.398;2024-01-06T01:39:47;99604.84;;;7.04;78.79
84147;BME280;74267;50.434;7.398;2024-01-06T01:42:12;99602.22;;;7.04;79.37
84147;BME280;74267;50.434;7.398;2024-01-06T01:44:37;99598.78;;;7.10;78.60
84147;BME280;74267;50.434;7.398;2024-01-06T01:47:04;99600.38;;;7.11;79.15
84147;BME280;74267;50.434;7.398;2024-01-06T01:49:30;99607.22;;;7.12;78.21
84147;BME280;74267;50.434;7.398;2024-01-06T01:51:55;99616.91;;;7.12;79.02
84147;BME280;74267;50.434;7.398;2024-01-06T01:54:21;99617.28;;;7.15;78.31
84147;BME280;74267;50.434;7.398;2024-01-06T01:56:46;99612.44;;;7.12;78.42
84147;BME280;74267;50.434;7.398;2024-01-06T01:59:12;99619.31;;;7.13;79.20
84147;BME280;74267;50.434;7.398;2024-01-06T02:01:39;99622.91;;;7.12;78.65
84147;BME280;74267;50.434;7.398;2024-01-06T02:04:05;99623.31;;;7.16;79.16
84147;BME280;74267;50.434;7.398;2024-01-06T02:06:30;99615.69;;;7.14;78.74
84147;BME280;74267;50.434;7.398;2024-01-06T02:08:56;99622.13;;;7.12;79.25
84147;BME280;74267;50.434;7.398;2024-01-06T02:11:21;99622.75;;;7.07;79.34
84147;BME280;74267;50.434;7.398;2024-01-06T02:13:46;99621.94;;;7.13;79.32
84147;BME280;74267;50.434;7.398;2024-01-06T02:16:12;99625.72;;;7.17;80.06
84147;BME280;74267;50.434;7.398;2024-01-06T02:18:37;99630.56;;;7.14;79.72
84147;BME280;74267;50.434;7.398;2024-01-06T02:21:02;99629.38;;;7.16;79.81
84147;BME280;74267;50.434;7.398;2024-01-06T02:23:28;99636.63;;;7.14;79.55
84147;BME280;74267;50.434;7.398;2024-01-06T02:25:54;99635.59;;;7.15;80.19
84147;BME280;74267;50.434;7.398;2024-01-06T02:28:20;99639.84;;;7.16;80.35
84147;BME280;74267;50.434;7.398;2024-01-06T02:30:45;99642.66;;;7.15;80.99
84147;BME280;74267;50.434;7.398;2024-01-06T02:33:10;99641.44;;;7.17;81.38
84147;BME280;74267;50.434;7.398;2024-01-06T02:35:36;99646.25;;;7.20;81.43
84147;BME280;74267;50.434;7.398;2024-01-06T02:38:01;99646.25;;;7.20;81.37
84147;BME280;74267;50.434;7.398;2024-01-06T02:40:27;99645.06;;;7.16;81.95
84147;BME280;74267;50.434;7.398;2024-01-06T02:42:52;99653.75;;;7.10;82.74
84147;BME280;74267;50.434;7.398;2024-01-06T02:45:17;99662.19;;;7.12;82.53
84147;BME280;74267;50.434;7.398;2024-01-06T02:47:43;99665.81;;;7.11;82.56
84147;BME280;74267;50.434;7.398;2024-01-06T02:50:08;99674.28;;;7.13;83.55
84147;BME280;74267;50.434;7.398;2024-01-06T02:52:33;99668.84;;;7.08;83.04
84147;BME280;74267;50.434;7.398;2024-01-06T02:54:59;99668.44;;;7.11;83.30
84147;BME280;74267;50.434;7.398;2024-01-06T02:57:25;99675.66;;;7.16;84.09
84147;BME280;74267;50.434;7.398;2024-01-06T02:59:51;99674.06;;;7.08;84.43
84147;BME280;74267;50.434;7.398;2024-01-06T03:02:16;99681.91;;;7.08;83.86
84147;BME280;74267;50.434;7.398;2024-01-06T03:04:42;99681.72;;;7.16;84.52
84147;BME280;74267;50.434;7.398;2024-01-06T03:07:07;99684.13;;;7.18;84.38
84147;BME280;74267;50.434;7.398;2024-01-06T03:09:32;99685.97;;;7.04;84.52
84147;BME280;74267;50.434;7.398;2024-01-06T03:11:58;99700.44;;;7.13;84.93
84147;BME280;74267;50.434;7.398;2024-01-06T03:14:23;99688.34;;;7.12;84.79
84147;BME280;74267;50.434;7.398;2024-01-06T03:16:48;99693.41;;;6.94;83.66
84147;BME280;74267;50.434;7.398;2024-01-06T03:19:14;99691.00;;;6.93;85.25
84147;BME280;74267;50.434;7.398;2024-01-06T03:21:39;99698.84;;;6.99;85.02
84147;BME280;74267;50.434;7.398;2024-01-06T03:24:06;99695.22;;;6.94;85.51
84147;BME280;74267;50.434;7.398;2024-01-06T03:26:32;99693.03;;;6.97;85.46
84147;BME280;74267;50.434;7.398;2024-01-06T03:28:58;99687.78;;;6.97;84.30
84147;BME280;74267;50.434;7.398;2024-01-06T03:31:24;99696.22;;;6.99;84.14
84147;BME280;74267;50.434;7.398;2024-01-06T03:33:49;99695.03;;;6.95;84.43
84147;BME280;74267;50.434;7.398;2024-01-06T03:36:14;99699.06;;;6.91;84.85
84147;BME280;74267;50.434;7.398;2024-01-06T03:38:41;99703.88;;;6.94;84.44
84147;BME280;74267;50.434;7.398;2024-01-06T03:41:07;99705.50;;;6.95;84.72
84147;BME280;74267;50.434;7.398;2024-01-06T03:43:32;99706.91;;;6.91;84.28
84147;BME280;74267;50.434;7.398;2024-01-06T03:45:57;99713.56;;;6.87;83.70
84147;BME280;74267;50.434;7.398;2024-01-06T03:48:25;99715.16;;;6.88;83.67
84147;BME280;74267;50.434;7.398;2024-01-06T03:50:50;99716.75;;;6.89;84.03
84147;BME280;74267;50.434;7.398;2024-01-06T03:53:15;99713.75;;;6.86;84.75
84147;BME280;74267;50.434;7.398;2024-01-06T03:55:41;99711.75;;;6.94;84.54
84147;BME280;74267;50.434;7.398;2024-01-06T03:58:06;99731.47;;;6.90;83.90
84147;BME280;74267;50.434;7.398;2024-01-06T04:00:31;99727.03;;;6.91;83.51
84147;BME280;74267;50.434;7.398;2024-01-06T04:02:57;99727.44;;;6.94;84.32
84147;BME280;74267;50.434;7.398;2024-01-06T04:05:22;99726.03;;;6.98;84.29
84147;BME280;74267;50.434;7.398;2024-01-06T04:07:47;99729.25;;;6.94;84.50
84147;BME280;74267;50.434;7.398;2024-01-06T04:10:13;99731.25;;;6.85;85.21
84147;BME280;74267;50.434;7.398;2024-01-06T04:12:38;99733.28;;;6.77;84.56
84147;BME280;74267;50.434;7.398;2024-01-06T04:15:04;99734.47;;;6.61;84.83
84147;BME280;74267;50.434;7.398;2024-01-06T04:17:29;99735.28;;;6.68;84.68
84147;BME280;74267;50.434;7.398;2024-01-06T04:19:55;99739.50;;;6.69;84.53
84147;BME280;74267;50.434;7.398;2024-01-06T04:22:20;99736.09;;;6.75;84.91
84147;BME280;74267;50.434;7.398;2024-01-06T04:24:45;99741.34;;;6.82;85.09
84147;BME280;74267;50.434;7.398;2024-01-06T04:27:10;99740.91;;;6.91;85.90
84147;BME280;74267;50.434;7.398;2024-01-06T04:29:36;99740.13;;;6.84;86.08
84147;BME280;74267;50.434;7.398;2024-01-06T04:32:01;99737.09;;;6.87;86.40
84147;BME280;74267;50.434;7.398;2024-01-06T04:34:27;99735.72;;;6.85;85.95
84147;BME280;74267;50.434;7.398;2024-01-06T04:36:52;99736.50;;;6.85;86.13
84147;BME280;74267;50.434;7.398;2024-01-06T04:39:17;99736.88;;;6.82;86.25
84147;BME280;74267;50.434;7.398;2024-01-06T04:41:43;99749.38;;;6.80;86.75
84147;BME280;74267;50.434;7.398;2024-01-06T04:44:08;99744.56;;;6.77;87.57
84147;BME280;74267;50.434;7.398;2024-01-06T04:46:34;99751.41;;;6.85;87.18
84147;BME280;74267;50.434;7.398;2024-01-06T04:48:59;99743.75;;;6.83;87.58
84147;BME280;74267;50.434;7.398;2024-01-06T04:51:24;99744.94;;;6.81;87.35
84147;BME280;74267;50.434;7.398;2024-01-06T04:53:49;99745.34;;;6.84;86.62
84147;BME280;74267;50.434;7.398;2024-01-06T04:56:15;99743.75;;;6.83;86.81
84147;BME280;74267;50.434;7.398;2024-01-06T04:58:40;99736.09;;;6.82;86.93
84147;BME280;74267;50.434;7.398;2024-01-06T05:01:05;99741.72;;;6.85;86.18
84147;BME280;74267;50.434;7.398;2024-01-06T05:03:31;99730.47;;;6.78;86.26
84147;BME280;74267;50.434;7.398;2024-01-06T05:05:56;99730.69;;;6.83;86.70
84147;BME280;74267;50.434;7.398;2024-01-06T05:08:21;99732.25;;;6.78;86.47
84147;BME280;74267;50.434;7.398;2024-01-06T05:10:48;99732.06;;;6.79;86.67
84147;BME280;74267;50.434;7.398;2024-01-06T05:13:14;99743.34;;;6.86;87.28
84147;BME280;74267;50.434;7.398;2024-01-06T05:15:39;99738.13;;;6.86;86.55
84147;BME280;74267;50.434;7.398;2024-01-06T05:18:05;99738.13;;;6.86;87.10
84147;BME280;74267;50.434;7.398;2024-01-06T05:20:30;99742.94;;;6.76;86.55
84147;BME280;74267;50.434;7.398;2024-01-06T05:22:55;99748.97;;;6.77;86.43
84147;BME280;74267;50.434;7.398;2024-01-06T05:25:20;99742.13;;;6.69;86.65
84147;BME280;74267;50.434;7.398;2024-01-06T05:27:46;99748.56;;;6.67;86.60
84147;BME280;74267;50.434;7.398;2024-01-06T05:30:11;99751.19;;;6.67;86.50
84147;BME280;74267;50.434;7.398;2024-01-06T05:32:37;99745.94;;;6.67;86.65
84147;BME280;74267;50.434;7.398;2024-01-06T05:35:03;99758.25;;;6.66;87.27
84147;BME280;74267;50.434;7.398;2024-01-06T05:37:29;99761.44;;;6.68;86.97
84147;BME280;74267;50.434;7.398;2024-01-06T05:39:54;99763.47;;;6.66;87.18
84147;BME280;74267;50.434;7.398;2024-01-06T05:42:20;99762.66;;;6.85;85.71
84147;BME280;74267;50.434;7.398;2024-01-06T05:44:45;99762.88;;;6.77;85.53
84147;BME280;74267;50.434;7.398;2024-01-06T05:47:11;99770.31;;;6.67;87.10
84147;BME280;74267;50.434;7.398;2024-01-06T05:49:41;99777.94;;;6.62;86.52
84147;BME280;74267;50.434;7.398;2024-01-06T05:52:06;99776.31;;;6.61;86.76
84147;BME280;74267;50.434;7.398;2024-01-06T05:54:31;99769.88;;;6.57;86.72
84147;BME280;74267;50.434;7.398;2024-01-06T05:56:57;99771.72;;;6.63;86.75
84147;BME280;74267;50.434;7.398;2024-01-06T05:59:22;99777.94;;;6.56;87.46
84147;BME280;74267;50.434;7.398;2024-01-06T06:01:47;99779.16;;;6.66;86.77
84147;BME280;74267;50.434;7.398;2024-01-06T06:04:12;99782.97;;;6.57;87.40
84147;BME280;74267;50.434;7.398;2024-01-06T06:06:38;99779.13;;;6.53;88.34
84147;BME280;74267;50.434;7.398;2024-01-06T06:09:03;99785.16;;;6.54;87.98
84147;BME280;74267;50.434;7.398;2024-01-06T06:11:32;99783.94;;;6.50;87.65
84147;BME280;74267;50.434;7.398;2024-01-06T06:13:58;99780.34;;;6.57;88.60
84147;BME280;74267;50.434;7.398;2024-01-06T06:16:23;99794.41;;;6.50;88.61
84147;BME280;74267;50.434;7.398;2024-01-06T06:18:48;99796.63;;;6.59;88.52
84147;BME280;74267;50.434;7.398;2024-01-06T06:21:13;99800.88;;;6.60;87.69
84147;BME280;74267;50.434;7.398;2024-01-06T06:23:39;99799.25;;;6.53;87.66
84147;BME280;74267;50.434;7.398;2024-01-06T06:26:08;99810.47;;;6.47;87.90
84147;BME280;74267;50.434;7.398;2024-01-06T06:28:34;99814.94;;;6.46;87.16
84147;BME280;74267;50.434;7.398;2024-01-06T06:31:00;99819.16;;;6.47;87.53
84147;BME280;74267;50.434;7.398;2024-01-06T06:33:25;99813.72;;;6.49;87.90
84147;BME280;74267;50.434;7.398;2024-01-06T06:35:50;99820.16;;;6.46;86.64
84147;BME280;74267;50.434;7.398;2024-01-06T06:38:16;99821.38;;;6.50;86.57
84147;BME280;74267;50.434;7.398;2024-01-06T06:40:41;99817.75;;;6.51;87.15
84147;BME280;74267;50.434;7.398;2024-01-06T06:43:07;99822.56;;;6.54;87.46
84147;BME280;74267;50.434;7.398;2024-01-06T06:45:33;99833.06;;;6.67;86.21
84147;BME280;74267;50.434;7.398;2024-01-06T06:47:58;99829.66;;;6.80;86.38
84147;BME280;74267;50.434;7.398;2024-01-06T06:50:24;99834.09;;;6.79;85.76
84147;BME280;74267;50.434;7.398;2024-01-06T06:52:49;99837.50;;;6.73;86.13
84147;BME280;74267;50.434;7.398;2024-01-06T06:55:14;99835.28;;;6.70;87.05
84147;BME280;74267;50.434;7.398;2024-01-06T06:57:40;99835.88;;;6.66;86.97
84147;BME280;74267;50.434;7.398;2024-01-06T07:00:06;99849.13;;;6.58;86.96
84147;BME280;74267;50.434;7.398;2024-01-06T07:02:33;99853.56;;;6.57;87.41
84147;BME280;74267;50.434;7.398;2024-01-06T07:04:59;99851.97;;;6.56;87.65
84147;BME280;74267;50.434;7.398;2024-01-06T07:07:24;99859.00;;;6.56;88.14
84147;BME280;74267;50.434;7.398;2024-01-06T07:09:49;99862.44;;;6.56;88.07
84147;BME280;74267;50.434;7.398;2024-01-06T07:12:15;99865.63;;;6.58;87.29
84147;BME280;74267;50.434;7.398;2024-01-06T07:14:40;99872.47;;;6.59;86.90
84147;BME280;74267;50.434;7.398;2024-01-06T07:17:05;99867.66;;;6.56;87.45
84147;BME280;74267;50.434;7.398;2024-01-06T07:19:32;99874.50;;;6.57;87.36
84147;BME280;74267;50.434;7.398;2024-01-06T07:21:58;99876.88;;;6.52;87.12
84147;BME280;74267;50.434;7.398;2024-01-06T07:24:23;99889.28;;;6.37;87.87
84147;BME280;74267;50.434;7.398;2024-01-06T07:26:48;99889.28;;;6.37;86.66
84147;BME280;74267;50.434;7.398;2024-01-06T07:29:14;99895.75;;;6.41;87.36
84147;BME280;74267;50.434;7.398;2024-01-06T07:31:39;99899.19;;;6.48;86.83
84147;BME280;74267;50.434;7.398;2024-01-06T07:34:04;99900.63;;;6.57;87.19
84147;BME280;74267;50.434;7.398;2024-01-06T07:36:31;99902.88;;;6.60;87.90
84147;BME280;74267;50.434;7.398;2024-01-06T07:38:57;99905.88;;;6.57;87.67
84147;BME280;74267;50.434;7.398;2024-01-06T07:41:22;99907.47;;;6.58;86.95
84147;BME280;74267;50.434;7.398;2024-01-06T07:43:47;99909.13;;;6.66;87.48
84147;BME280;74267;50.434;7.398;2024-01-06T07:46:13;99915.94;;;6.60;87.17
84147;BME280;74267;50.434;7.398;2024-01-06T07:48:38;99924.22;;;6.70;86.46
84147;BME280;74267;50.434;7.398;2024-01-06T07:51:03;99921.81;;;6.75;87.62
84147;BME280;74267;50.434;7.398;2024-01-06T07:53:29;99928.19;;;6.60;87.91
84147;BME280;74267;50.434;7.398;2024-01-06T07:55:54;99933.81;;;6.57;87.53
84147;BME280;74267;50.434;7.398;2024-01-06T07:58:19;99932.41;;;6.54;88.42
84147;BME280;74267;50.434;7.398;2024-01-06T08:00:46;99945.69;;;6.59;88.45
84147;BME280;74267;50.434;7.398;2024-01-06T08:03:12;99937.31;;;6.77;87.45
84147;BME280;74267;50.434;7.398;2024-01-06T08:05:37;99945.16;;;6.70;87.86
84147;BME280;74267;50.434;7.398;2024-01-06T08:08:04;99955.16;;;6.60;89.90
84147;BME280;74267;50.434;7.398;2024-01-06T08:10:29;99952.56;;;6.67;89.71
84147;BME280;74267;50.434;7.398;2024-01-06T08:12:55;99955.75;;;6.62;89.31
84147;BME280;74267;50.434;7.398;2024-01-06T08:15:20;99953.53;;;6.53;88.71
84147;BME280;74267;50.434;7.398;2024-01-06T08:17:45;99961.38;;;6.59;88.64
84147;BME280;74267;50.434;7.398;2024-01-06T08:20:12;99957.59;;;6.62;88.85
84147;BME280;74267;50.434;7.398;2024-01-06T08:22:38;99964.44;;;6.63;89.73
84147;BME280;74267;50.434;7.398;2024-01-06T08:25:03;99963.84;;;6.67;89.03
84147;BME280;74267;50.434;7.398;2024-01-06T08:27:31;99961.38;;;6.59;88.56
84147;BME280;74267;50.434;7.398;2024-01-06T08:29:56;99964.22;;;6.64;88.70
84147;BME280;74267;50.434;7.398;2024-01-06T08:32:22;99974.69;;;6.64;89.52
84147;BME280;74267;50.434;7.398;2024-01-06T08:34:47;99976.34;;;6.78;89.09
84147;BME280;74267;50.434;7.398;2024-01-06T08:37:12;99974.50;;;6.72;88.81
84147;BME280;74267;50.434;7.398;2024-01-06T08:39:38;99978.53;;;6.68;88.87
84147;BME280;74267;50.434;7.398;2024-01-06T08:42:04;99982.75;;;6.69;89.14
84147;BME280;74267;50.434;7.398;2024-01-06T08:44:29;99982.75;;;6.69;88.74
84147;BME280;74267;50.434;7.398;2024-01-06T08:46:54;99995.44;;;6.72;89.57
84147;BME280;74267;50.434;7.398;2024-01-06T08:49:20;99994.22;;;6.62;90.56
84147;BME280;74267;50.434;7.398;2024-01-06T08:51:45;100001.47;;;6.66;89.79
84147;BME280;74267;50.434;7.398;2024-01-06T08:54:10;100008.25;;;6.54;90.66
84147;BME280;74267;50.434;7.398;2024-01-06T08:56:35;100016.50;;;6.58;90.12
84147;BME280;74267;50.434;7.398;2024-01-06T08:59:01;100020.50;;;6.54;90.85
84147;BME280;74267;50.434;7.398;2024-01-06T09:01:26;100020.84;;;6.44;90.81
84147;BME280;74267;50.434;7.398;2024-01-06T09:03:52;100026.09;;;6.44;90.82
84147;BME280;74267;50.434;7.398;2024-01-06T09:06:17;100032.69;;;6.40;90.22
84147;BME280;74267;50.434;7.398;2024-01-06T09:08:43;100031.69;;;6.41;89.62
84147;BME280;74267;50.434;7.398;2024-01-06T09:11:08;100040.53;;;6.40;89.99
84147;BME280;74267;50.434;7.398;2024-01-06T09:13:33;100044.50;;;6.36;90.88
84147;BME280;74267;50.434;7.398;2024-01-06T09:15:59;100039.81;;;6.25;91.56
84147;BME280;74267;50.434;7.398;2024-01-06T09:18:26;100047.25;;;6.22;91.15
84147;BME280;74267;50.434;7.398;2024-01-06T09:20:51;100043.56;;;6.16;91.07
84147;BME280;74267;50.434;7.398;2024-01-06T09:23:17;100052.41;;;6.15;92.17
84147;BME280;74267;50.434;7.398;2024-01-06T09:25:42;100052.03;;;6.18;92.14
84147;BME280;74267;50.434;7.398;2024-01-06T09:28:07;100050.84;;;6.21;91.47
84147;BME280;74267;50.434;7.398;2024-01-06T09:30:33;100057.84;;;6.14;91.01
84147;BME280;74267;50.434;7.398;2024-01-06T09:32:58;100068.47;;;6.12;90.78
84147;BME280;74267;50.434;7.398;2024-01-06T09:35:24;100061.63;;;6.11;90.39
84147;BME280;74267;50.434;7.398;2024-01-06T09:37:49;100056.03;;;6.14;91.02
84147;BME280;74267;50.434;7.398;2024-01-06T09:40:21;100066.13;;;6.17;90.68
84147;BME280;74267;50.434;7.398;2024-01-06T09:42:48;100072.94;;;6.18;89.85
84147;BME280;74267;50.434;7.398;2024-01-06T09:45:13;100070.59;;;6.23;89.42
84147;BME280;74267;50.434;7.398;2024-01-06T09:47:40;100077.81;;;6.21;89.39
84147;BME280;74267;50.434;7.398;2024-01-06T09:50:08;100074.16;;;6.16;89.04
84147;BME280;74267;50.434;7.398;2024-01-06T09:52:39;100072.47;;;6.08;89.59
84147;BME280;74267;50.434;7.398;2024-01-06T09:55:10;100088.50;;;6.05;90.04
84147;BME280;74267;50.434;7.398;2024-01-06T09:57:36;100077.84;;;6.00;90.17
84147;BME280;74267;50.434;7.398;2024-01-06T10:00:02;100090.53;;;6.03;89.24
84147;BME280;74267;50.434;7.398;2024-01-06T10:02:29;100091.88;;;5.99;90.18
84147;BME280;74267;50.434;7.398;2024-01-06T10:04:57;100094.84;;;5.96;89.36
84147;BME280;74267;50.434;7.398;2024-01-06T10:07:23;100100.19;;;6.09;88.96
84147;BME280;74267;50.434;7.398;2024-01-06T10:09:48;100097.97;;;6.06;88.45
84147;BME280;74267;50.434;7.398;2024-01-06T10:12:14;100103.06;;;6.14;88.56
84147;BME280;74267;50.434;7.398;2024-01-06T10:14:39;100105.44;;;6.09;89.35
84147;BME280;74267;50.434;7.398;2024-01-06T10:17:08;100102.94;;;6.22;88.58
84147;BME280;74267;50.434;7.398;2024-01-06T10:19:34;100113.66;;;6.27;89.17
84147;BME280;74267;50.434;7.398;2024-01-06T10:22:00;100124.84;;;6.21;87.09
84147;BME280;74267;50.434;7.398;2024-01-06T10:24:27;100130.53;;;6.25;86.95
84147;BME280;74267;50.434;7.398;2024-01-06T10:26:53;100131.56;;;6.30;87.77
84147;BME280;74267;50.434;7.398;2024-01-06T10:29:18;100121.81;;;6.45;86.35
84147;BME280;74267;50.434;7.398;2024-01-06T10:31:43;100135.09;;;6.44;87.08
84147;BME280;74267;50.434;7.398;2024-01-06T10:34:09;100128.69;;;6.46;86.23
84147;BME280;74267;50.434;7.398;2024-01-06T10:36:35;100135.91;;;6.44;87.01
84147;BME280;74267;50.434;7.398;2024-01-06T10:39:02;100124.44;;;6.45;86.98
84147;BME280;74267;50.434;7.398;2024-01-06T10:41:29;100126.38;;;6.37;86.03
84147;BME280;74267;50.434;7.398;2024-01-06T10:43:57;100131.41;;;6.38;85.38
84147;BME280;74267;50.434;7.398;2024-01-06T10:46:24;100134.28;;;6.22;85.94
84147;BME280;74267;50.434;7.398;2024-01-06T10:48:51;100128.84;;;6.17;86.85
84147;BME280;74267;50.434;7.398;2024-01-06T10:51:17;100134.06;;;6.17;87.01
84147;BME280;74267;50.434;7.398;2024-01-06T10:53:44;100137.34;;;6.26;87.15
84147;BME280;74267;50.434;7.398;2024-01-06T10:56:09;100139.78;;;6.27;87.69
84147;BME280;74267;50.434;7.398;2024-01-06T10:58:40;100148.31;;;6.15;86.19
84147;BME280;74267;50.434;7.398;2024-01-06T11:01:09;100142.63;;;6.32;87.54
84147;BME280;74267;50.434;7.398;2024-01-06T11:03:39;100151.47;;;6.31;88.08
84147;BME280;74267;50.434;7.398;2024-01-06T11:06:08;100156.69;;;6.31;88.09
84147;BME280;74267;50.434;7.398;2024-01-06T11:08:42;100150.72;;;6.16;88.26
84147;BME280;74267;50.434;7.398;2024-01-06T11:11:23;100145.00;;;6.06;89.31
84147;BME280;74267;50.434;7.398;2024-01-06T11:13:49;100134.47;;;6.69;88.29
84147;BME280;74267;50.434;7.398;2024-01-06T11:16:34;100142.06;;;7.26;85.11
84147;BME280;74267;50.434;7.398;2024-01-06T11:18:59;100130.88;;;7.51;83.19
84147;BME280;74267;50.434;7.398;2024-01-06T11:21:25;100135.75;;;7.68;82.29
84147;BME280;74267;50.434;7.398;2024-01-06T11:26:31;100135.84;;;7.94;80.17
84147;BME280;74267;50.434;7.398;2024-01-06T11:28:56;100148.94;;;7.94;80.32
84147;BME280;74267;50.434;7.398;2024-01-06T11:31:23;100145.69;;;7.92;79.39
84147;BME280;74267;50.434;7.398;2024-01-06T11:33:51;100142.22;;;7.65;79.53
84147;BME280;74267;50.434;7.398;2024-01-06T11:36:16;100140.22;;;7.74;79.74
84147;BME280;74267;50.434;7.398;2024-01-06T11:38:41;100141.97;;;7.60;79.43
84147;BME280;74267;50.434;7.398;2024-01-06T11:41:07;100148.25;;;7.66;78.72
84147;BME280;74267;50.434;7.398;2024-01-06T11:43:34;100143.13;;;7.44;80.51
84147;BME280;74267;50.434;7.398;2024-01-06T11:46:01;100136.75;;;7.60;80.56
84147;BME280;74267;50.434;7.398;2024-01-06T11:48:29;100153.47;;;7.66;81.41
84147;BME280;74267;50.434;7.398;2024-01-06T11:50:55;100165.22;;;7.83;81.09
84147;BME280;74267;50.434;7.398;2024-01-06T11:53:20;100158.75;;;7.79;81.17
84147;BME280;74267;50.434;7.398;2024-01-06T11:55:48;100152.41;;;7.47;80.59
84147;BME280;74267;50.434;7.398;2024-01-06T11:58:16;100152.88;;;7.16;81.92
84147;BME280;74267;50.434;7.398;2024-01-06T12:00:42;100158.63;;;7.39;80.42
84147;BME280;74267;50.434;7.398;2024-01-06T12:03:07;100155.78;;;7.34;80.34
84147;BME280;74267;50.434;7.398;2024-01-06T12:05:33;100156.47;;;7.09;82.31
84147;BME280;74267;50.434;7.398;2024-01-06T12:08:00;100155.38;;;6.69;84.98
84147;BME280;74267;50.434;7.398;2024-01-06T12:10:27;100156.00;;;6.44;84.17
84147;BME280;74267;50.434;7.398;2024-01-06T12:13:01;100149.38;;;6.20;84.48
84147;BME280;74267;50.434;7.398;2024-01-06T12:15:27;100154.47;;;6.28;85.02
84147;BME280;74267;50.434;7.398;2024-01-06T12:17:53;100152.53;;;6.16;85.06
84147;BME280;74267;50.434;7.398;2024-01-06T12:20:19;100161.53;;;5.92;85.27
84147;BME280;74267;50.434;7.398;2024-01-06T12:22:44;100155.59;;;5.98;85.25
84147;BME280;74267;50.434;7.398;2024-01-06T12:25:10;100156.31;;;5.92;83.87
84147;BME280;74267;50.434;7.398;2024-01-06T12:27:35;100156.63;;;5.83;83.29
84147;BME280;74267;50.434;7.398;2024-01-06T12:30:01;100151.84;;;5.86;83.54
84147;BME280;74267;50.434;7.398;2024-01-06T12:32:27;100156.63;;;5.83;83.66
84147;BME280;74267;50.434;7.398;2024-01-06T12:34:53;100156.31;;;5.92;84.21
84147;BME280;74267;50.434;7.398;2024-01-06T12:37:18;100155.72;;;6.11;81.93
84147;BME280;74267;50.434;7.398;2024-01-06T12:39:43;100161.75;;;6.33;81.74
84147;BME280;74267;50.434;7.398;2024-01-06T12:42:10;100152.44;;;6.51;80.47
84147;BME280;74267;50.434;7.398;2024-01-06T12:44:36;100172.50;;;6.44;77.87
84147;BME280;74267;50.434;7.398;2024-01-06T12:47:04;100176.72;;;6.66;77.95
84147;BME280;74267;50.434;7.398;2024-01-06T12:49:29;100180.97;;;6.46;78.77
84147;BME280;74267;50.434;7.398;2024-01-06T12:51:55;100184.31;;;6.61;78.29
84147;BME280;74267;50.434;7.398;2024-01-06T12:54:20;100189.66;;;6.74;76.28
84147;BME280;74267;50.434;7.398;2024-01-06T12:56:45;100182.97;;;6.99;77.12
84147;BME280;74267;50.434;7.398;2024-01-06T12:59:11;100185.44;;;7.07;77.03
84147;BME280;74267;50.434;7.398;2024-01-06T13:01:36;100177.03;;;7.12;77.26